CST,Max TemperatureF,Mean TemperatureF,Min TemperatureF,Max Dew PointF,MeanDew PointF,Min DewpointF,Max Humidity, Mean Humidity, Min Humidity, Max Sea Level PressureIn, Mean Sea Level PressureIn, Min Sea Level PressureIn, Max VisibilityMiles, Mean VisibilityMiles, Min VisibilityMiles, Max Wind SpeedMPH, Mean Wind SpeedMPH, Max Gust SpeedMPH,PrecipitationIn, CloudCover, Events, WindDirDegrees
2005-12-1,68,56,43,48,37,25,82,59,30,30.21,30.11,30.04,10,10,10,13,6,,T,3,,38
2005-12-2,62,51,40,45,34,25,69,52,30,30.22,30.09,29.97,10,10,7,14,9,,0.00,3,,119
2005-12-3,81,68,54,65,60,45,94,78,52,29.95,29.87,29.79,10,8,0,22,11,34,0.00,6,Fog,187
2005-12-4,78,61,43,67,55,39,94,84,68,30.06,29.92,29.83,10,7,0,18,9,26,0.67,7,Fog-Rain-Thunderstorm,14
2005-12-5,53,42,31,38,30,23,85,65,32,30.29,30.18,30.06,10,10,8,14,10,21,0.00,3,,357
2005-12-6,57,41,25,34,26,14,92,66,19,30.34,30.27,30.22,10,9,2,10,2,,0.00,0,,118
2005-12-7,55,43,31,33,30,27,89,54,43,30.28,30.25,30.20,10,10,10,10,5,,T,6,,56
2005-12-8,49,40,30,38,34,26,93,81,44,30.46,30.34,30.20,10,7,2,15,9,21,0.20,7,Rain,335
2005-12-9,48,39,29,26,22,19,82,60,33,30.51,30.41,30.28,10,10,7,8,6,,0.00,0,,23
2005-12-10,53,41,29,42,33,25,100,77,52,30.27,30.18,30.11,10,8,2,10,2,,0.01,4,Rain,149
2005-12-11,61,45,29,37,32,28,93,72,29,30.22,30.15,30.09,10,7,0,13,3,,0.00,0,Fog,314
2005-12-12,68,53,37,37,33,28,83,58,22,30.17,30.12,30.07,10,10,10,10,2,,0.00,0,,271
2005-12-13,69,51,32,39,34,30,89,59,26,30.18,30.09,29.99,10,10,6,12,3,,0.00,1,,146
2005-12-14,62,57,51,58,53,38,100,86,55,30.03,29.82,29.73,10,5,1,18,8,28,2.63,8,Rain-Thunderstorm,34
2005-12-15,57,46,35,50,34,25,96,63,30,30.12,30.00,29.82,10,10,8,17,10,24,0.00,3,,321
2005-12-16,46,40,34,32,26,21,76,57,39,30.25,30.20,30.11,10,10,10,10,4,,0.04,3,Rain,19
2005-12-17,48,42,36,36,33,28,89,71,56,30.35,30.29,30.23,10,10,6,12,6,,0.23,3,Rain,51
2005-12-18,57,44,30,32,29,27,82,60,33,30.50,30.43,30.33,10,10,10,12,5,,0.00,0,,350
2005-12-19,52,44,36,30,28,25,85,63,36,30.55,30.47,30.41,10,10,10,12,6,,0.00,0,,20
2005-12-20,47,38,29,35,29,26,86,71,47,30.48,30.41,30.36,10,10,9,7,4,,0.02,6,Rain,20
2005-12-21,48,43,37,38,33,28,89,72,60,30.44,30.39,30.36,10,9,5,8,4,,0.00,8,,330
2005-12-22,55,45,34,39,36,33,93,74,43,30.39,30.32,30.22,10,7,2,7,2,,0.00,3,,145
2005-12-23,66,47,28,46,35,27,100,83,43,30.21,30.11,29.92,10,5,0,13,4,,0.00,1,Fog-Rain,150
2005-12-24,69,60,50,57,45,34,88,66,32,29.90,29.80,29.70,10,9,5,18,8,25,0.00,4,,220
2005-12-25,63,50,36,38,34,29,82,55,28,30.05,29.93,29.83,10,10,10,20,11,26,0.00,2,,304
2005-12-26,69,50,31,38,34,29,89,60,24,30.16,30.08,30.04,10,10,9,8,3,,0.00,0,,154
2005-12-27,74,60,46,61,55,38,90,74,57,30.02,29.89,29.78,10,10,10,22,11,29,0.00,4,,186
2005-12-28,70,59,48,60,44,34,93,58,27,29.85,29.81,29.75,10,9,4,14,9,18,0.00,0,,268
2005-12-29,69,54,38,39,35,27,86,53,22,29.94,29.86,29.83,10,10,10,7,4,,0.00,0,,152
2005-12-30,76,58,40,60,50,37,97,78,55,29.88,29.83,29.75,10,8,0,18,4,22,0.00,3,Fog,184
2005-12-31,71,57,43,57,47,36,96,78,34,29.99,29.89,29.82,10,5,0,10,3,,0.00,2,Fog,129